Geneva, Nebraska
Current Conditions -  °F | °C
As of 10:55 AM on Monday 22 Dec 2014 (Local Time) from KJYR Reporting Station
Few Clouds Few Clouds  
Wind Chill: 35°   Ceiling: Unl
Heat Index: 43°   Visibility: 10mi
Dew Point: 39°   Wind: 17mph
Humidity: 87%   Direction: 320°NW
Pressure: 29.49"   Gusts: NA
Location:  40.53°N, 97.6°W
Report Text: KJYR 221655Z AUTO 32015KT 10SM FEW060 06/04 A2949 RMK AO2
Loading
Personal Weather Stations






























Interactive Weather Map New forecast layout! Learn more

10-Day Weather Forecast

Advertisements
Track Severe Weather on mobile